Terminal Aerodrome Forecast
Issued by NWS

Home | Current Version | Previous Version | Graphics & Text | Print | Product List | Glossary On
Versions: 1 2 3 4 5 6 7 8 9 10 11 12 13 14
000
FTUS43 KIWX 190539
TAFSBN
TAF
KSBN 190539Z 1906/2006 01010KT 2SM -SNDZ BR OVC006
     FM190700 34012G20KT 2SM -SN BR OVC006
     FM191200 34012KT P6SM SCT015
     FM191600 34014G22KT P6SM SCT250
     FM200200 32006KT P6SM SKC=

USA.gov is the U.S. government's official web portal to all federal, state and local government web resources and services.